sensor_id;sensor_type;location;lat;lon;timestamp;pressure;altitude;pressure_sealevel;temperature;humidity
50123;BME280;36021;48.670;6.184;2023-04-26T00:00:43;99166.03;;;8.47;100.00
50123;BME280;36021;48.670;6.184;2023-04-26T00:03:10;99175.63;;;8.55;100.00
50123;BME280;36021;48.670;6.184;2023-04-26T00:05:38;99177.00;;;8.52;100.00
50123;BME280;36021;48.670;6.184;2023-04-26T00:08:04;99176.75;;;8.38;100.00
50123;BME280;36021;48.670;6.184;2023-04-26T00:10:31;99166.31;;;8.46;100.00
50123;BME280;36021;48.670;6.184;2023-04-26T00:12:57;99174.00;;;8.44;100.00
50123;BME280;36021;48.670;6.184;2023-04-26T00:15:22;99164.38;;;8.46;100.00
50123;BME280;36021;48.670;6.184;2023-04-26T00:17:48;99161.91;;;8.50;100.00
50123;BME280;36021;48.670;6.184;2023-04-26T00:20:14;99167.69;;;8.33;100.00
50123;BME280;36021;48.670;6.184;2023-04-26T00:22:40;99163.03;;;8.28;100.00
50123;BME280;36021;48.670;6.184;2023-04-26T00:25:06;99169.34;;;8.24;100.00
50123;BME280;36021;48.670;6.184;2023-04-26T00:27:32;99169.88;;;8.11;100.00
50123;BME280;36021;48.670;6.184;2023-04-26T00:29:59;99164.13;;;8.07;100.00
50123;BME280;36021;48.670;6.184;2023-04-26T00:32:24;99169.31;;;7.88;100.00
50123;BME280;36021;48.670;6.184;2023-04-26T00:34:50;99163.28;;;7.76;100.00
50123;BME280;36021;48.670;6.184;2023-04-26T00:37:16;99167.41;;;7.74;100.00
50123;BME280;36021;48.670;6.184;2023-04-26T00:39:43;99172.34;;;7.82;100.00
50123;BME280;36021;48.670;6.184;2023-04-26T00:42:09;99162.75;;;7.90;100.00
50123;BME280;36021;48.670;6.184;2023-04-26T00:44:37;99164.69;;;7.94;100.00
50123;BME280;36021;48.670;6.184;2023-04-26T00:47:04;99164.13;;;7.97;100.00
50123;BME280;36021;48.670;6.184;2023-04-26T00:49:30;99160.53;;;8.02;100.00
50123;BME280;36021;48.670;6.184;2023-04-26T00:51:56;99155.88;;;8.02;100.00
50123;BME280;36021;48.670;6.184;2023-04-26T00:54:21;99163.56;;;8.05;100.00
50123;BME280;36021;48.670;6.184;2023-04-26T00:56:48;99160.28;;;8.03;100.00
50123;BME280;36021;48.670;6.184;2023-04-26T00:59:18;99153.69;;;7.89;100.00
50123;BME280;36021;48.670;6.184;2023-04-26T01:01:44;99156.97;;;7.76;100.00
50123;BME280;36021;48.670;6.184;2023-04-26T01:04:10;99156.97;;;7.61;100.00
50123;BME280;36021;48.670;6.184;2023-04-26T01:06:38;99158.63;;;7.67;100.00
50123;BME280;36021;48.670;6.184;2023-04-26T01:09:04;99160.50;;;7.51;100.00
50123;BME280;36021;48.670;6.184;2023-04-26T01:11:39;99155.28;;;7.45;100.00
50123;BME280;36021;48.670;6.184;2023-04-26T01:14:05;99158.31;;;7.53;100.00
50123;BME280;36021;48.670;6.184;2023-04-26T01:16:32;99156.13;;;7.55;100.00
50123;BME280;36021;48.670;6.184;2023-04-26T01:19:05;99158.63;;;7.72;100.00
50123;BME280;36021;48.670;6.184;2023-04-26T01:21:31;99157.25;;;7.74;100.00
50123;BME280;36021;48.670;6.184;2023-04-26T01:23:57;99156.44;;;7.69;100.00
50123;BME280;36021;48.670;6.184;2023-04-26T01:26:24;99155.59;;;7.58;100.00
50123;BME280;36021;48.670;6.184;2023-04-26T01:28:52;99151.22;;;7.62;100.00
50123;BME280;36021;48.670;6.184;2023-04-26T01:31:18;99152.00;;;7.63;100.00
50123;BME280;36021;48.670;6.184;2023-04-26T01:33:43;99156.94;;;7.66;100.00
50123;BME280;36021;48.670;6.184;2023-04-26T01:36:09;99153.66;;;7.64;100.00
50123;BME280;36021;48.670;6.184;2023-04-26T01:38:36;99153.09;;;7.47;100.00
50123;BME280;36021;48.670;6.184;2023-04-26T01:41:01;99153.63;;;7.44;100.00
50123;BME280;36021;48.670;6.184;2023-04-26T01:43:27;99158.56;;;7.37;100.00
50123;BME280;36021;48.670;6.184;2023-04-26T01:45:54;99151.69;;;7.29;100.00
50123;BME280;36021;48.670;6.184;2023-04-26T01:48:29;99156.34;;;7.28;100.00
50123;BME280;36021;48.670;6.184;2023-04-26T01:50:55;99160.75;;;7.34;100.00
50123;BME280;36021;48.670;6.184;2023-04-26T01:53:20;99161.28;;;7.37;100.00
50123;BME280;36021;48.670;6.184;2023-04-26T01:55:48;99153.59;;;7.23;100.00
50123;BME280;36021;48.670;6.184;2023-04-26T01:58:14;99156.63;;;7.37;100.00
50123;BME280;36021;48.670;6.184;2023-04-26T02:00:41;99156.66;;;7.47;100.00
50123;BME280;36021;48.670;6.184;2023-04-26T02:03:06;99158.03;;;7.50;100.00
50123;BME280;36021;48.670;6.184;2023-04-26T02:05:32;99152.03;;;7.58;100.00
50123;BME280;36021;48.670;6.184;2023-04-26T02:07:58;99152.03;;;7.58;100.00
50123;BME280;36021;48.670;6.184;2023-04-26T02:10:24;99154.19;;;7.51;100.00
50123;BME280;36021;48.670;6.184;2023-04-26T02:12:50;99146.25;;;7.49;100.00
50123;BME280;36021;48.670;6.184;2023-04-26T02:15:15;99146.78;;;7.46;100.00
50123;BME280;36021;48.670;6.184;2023-04-26T02:17:41;99150.91;;;7.49;100.00
50123;BME280;36021;48.670;6.184;2023-04-26T02:20:07;99147.59;;;7.47;100.00
50123;BME280;36021;48.670;6.184;2023-04-26T02:22:35;99153.66;;;7.54;100.00
50123;BME280;36021;48.670;6.184;2023-04-26T02:25:01;99148.75;;;7.56;100.00
50123;BME280;36021;48.670;6.184;2023-04-26T02:27:31;99150.06;;;7.43;100.00
50123;BME280;36021;48.670;6.184;2023-04-26T02:29:58;99153.63;;;7.33;100.00
50123;BME280;36021;48.670;6.184;2023-04-26T02:32:24;99143.19;;;7.30;100.00
50123;BME280;36021;48.670;6.184;2023-04-26T02:34:49;99143.75;;;7.32;100.00
50123;BME280;36021;48.670;6.184;2023-04-26T02:37:15;99146.50;;;7.32;100.00
50123;BME280;36021;48.670;6.184;2023-04-26T02:39:41;99141.78;;;7.18;100.00
50123;BME280;36021;48.670;6.184;2023-04-26T02:42:09;99144.78;;;7.11;100.00
50123;BME280;36021;48.670;6.184;2023-04-26T02:44:35;99142.59;;;7.13;100.00
50123;BME280;36021;48.670;6.184;2023-04-26T02:47:02;99153.25;;;7.00;100.00
50123;BME280;36021;48.670;6.184;2023-04-26T02:49:29;99149.69;;;6.99;100.00
50123;BME280;36021;48.670;6.184;2023-04-26T02:51:54;99140.59;;;6.94;100.00
50123;BME280;36021;48.670;6.184;2023-04-26T02:54:20;99141.72;;;6.93;100.00
50123;BME280;36021;48.670;6.184;2023-04-26T02:56:47;99140.94;;;7.02;100.00
50123;BME280;36021;48.670;6.184;2023-04-26T02:59:12;99140.94;;;7.07;100.00
50123;BME280;36021;48.670;6.184;2023-04-26T03:01:39;99136.31;;;7.13;100.00
50123;BME280;36021;48.670;6.184;2023-04-26T03:04:04;99128.88;;;7.08;100.00
50123;BME280;36021;48.670;6.184;2023-04-26T03:06:32;99127.44;;;6.91;100.00
50123;BME280;36021;48.670;6.184;2023-04-26T03:08:58;99134.28;;;6.83;100.00
50123;BME280;36021;48.670;6.184;2023-04-26T03:11:25;99134.78;;;6.75;100.00
50123;BME280;36021;48.670;6.184;2023-04-26T03:13:50;99135.84;;;6.64;100.00
50123;BME280;36021;48.670;6.184;2023-04-26T03:16:19;99133.66;;;6.71;100.00
50123;BME280;36021;48.670;6.184;2023-04-26T03:18:48;99132.81;;;6.60;100.00
50123;BME280;36021;48.670;6.184;2023-04-26T03:21:14;99130.31;;;6.54;100.00
50123;BME280;36021;48.670;6.184;2023-04-26T03:23:39;99132.53;;;6.57;100.00
50123;BME280;36021;48.670;6.184;2023-04-26T03:26:05;99132.56;;;6.67;100.00
50123;BME280;36021;48.670;6.184;2023-04-26T03:28:31;99121.56;;;6.62;100.00
50123;BME280;36021;48.670;6.184;2023-04-26T03:30:56;99137.50;;;6.70;100.00
50123;BME280;36021;48.670;6.184;2023-04-26T03:33:22;99126.28;;;6.71;100.00
50123;BME280;36021;48.670;6.184;2023-04-26T03:35:48;99125.44;;;6.71;100.00
50123;BME280;36021;48.670;6.184;2023-04-26T03:38:14;99127.34;;;6.65;100.00
50123;BME280;36021;48.670;6.184;2023-04-26T03:40:40;99122.00;;;6.39;100.00
50123;BME280;36021;48.670;6.184;2023-04-26T03:43:06;99112.41;;;6.31;100.00
50123;BME280;36021;48.670;6.184;2023-04-26T03:45:33;99119.13;;;6.13;100.00
50123;BME280;36021;48.670;6.184;2023-04-26T03:47:58;99121.88;;;6.18;100.00
50123;BME280;36021;48.670;6.184;2023-04-26T03:50:24;99127.69;;;6.27;100.00
50123;BME280;36021;48.670;6.184;2023-04-26T03:52:50;99130.16;;;6.28;100.00
50123;BME280;36021;48.670;6.184;2023-04-26T03:55:15;99134.22;;;6.21;100.00
50123;BME280;36021;48.670;6.184;2023-04-26T03:57:42;99129.00;;;6.14;100.00
50123;BME280;36021;48.670;6.184;2023-04-26T04:00:10;99128.63;;;6.01;100.00
50123;BME280;36021;48.670;6.184;2023-04-26T04:02:41;99128.72;;;5.84;100.00
50123;BME280;36021;48.670;6.184;2023-04-26T04:05:08;99124.00;;;5.74;100.00
50123;BME280;36021;48.670;6.184;2023-04-26T04:07:36;99131.44;;;5.79;100.00
50123;BME280;36021;48.670;6.184;2023-04-26T04:10:03;99135.25;;;5.78;100.00
50123;BME280;36021;48.670;6.184;2023-04-26T04:12:28;99130.50;;;5.68;100.00
50123;BME280;36021;48.670;6.184;2023-04-26T04:14:55;99132.72;;;5.71;100.00
50123;BME280;36021;48.670;6.184;2023-04-26T04:17:22;99132.19;;;5.74;100.00
50123;BME280;36021;48.670;6.184;2023-04-26T04:19:48;99137.97;;;5.78;100.00
50123;BME280;36021;48.670;6.184;2023-04-26T04:22:14;99136.94;;;5.84;100.00
50123;BME280;36021;48.670;6.184;2023-04-26T04:24:40;99137.50;;;5.86;100.00
50123;BME280;36021;48.670;6.184;2023-04-26T04:27:06;99132.97;;;5.70;100.00
50123;BME280;36021;48.670;6.184;2023-04-26T04:29:33;99140.09;;;5.71;100.00
50123;BME280;36021;48.670;6.184;2023-04-26T04:31:59;99136.59;;;5.75;100.00
50123;BME280;36021;48.670;6.184;2023-04-26T04:34:25;99140.72;;;5.78;100.00
50123;BME280;36021;48.670;6.184;2023-04-26T04:36:52;99134.09;;;5.74;100.00
50123;BME280;36021;48.670;6.184;2023-04-26T04:39:19;99140.44;;;5.79;100.00
50123;BME280;36021;48.670;6.184;2023-04-26T04:41:46;99144.69;;;5.92;100.00
50123;BME280;36021;48.670;6.184;2023-04-26T04:44:14;99142.53;;;5.99;100.00
50123;BME280;36021;48.670;6.184;2023-04-26T04:46:41;99141.97;;;5.92;100.00
50123;BME280;36021;48.670;6.184;2023-04-26T04:49:07;99146.31;;;5.88;100.00
50123;BME280;36021;48.670;6.184;2023-04-26T04:51:33;99144.69;;;5.92;100.00
50123;BME280;36021;48.670;6.184;2023-04-26T04:54:07;99146.47;;;5.82;100.00
50123;BME280;36021;48.670;6.184;2023-04-26T04:56:35;99145.91;;;5.79;100.00
50123;BME280;36021;48.670;6.184;2023-04-26T04:59:02;99154.31;;;5.73;100.00
50123;BME280;36021;48.670;6.184;2023-04-26T05:01:29;99164.25;;;5.79;100.00
50123;BME280;36021;48.670;6.184;2023-04-26T05:03:57;99165.16;;;5.63;100.00
50123;BME280;36021;48.670;6.184;2023-04-26T05:06:22;99163.56;;;5.67;100.00
50123;BME280;36021;48.670;6.184;2023-04-26T05:08:49;99164.72;;;5.76;100.00
50123;BME280;36021;48.670;6.184;2023-04-26T05:11:16;99172.38;;;5.74;100.00
50123;BME280;36021;48.670;6.184;2023-04-26T05:13:42;99173.00;;;5.81;100.00
50123;BME280;36021;48.670;6.184;2023-04-26T05:16:07;99183.19;;;5.86;100.00
50123;BME280;36021;48.670;6.184;2023-04-26T05:18:33;99189.34;;;5.76;100.00
50123;BME280;36021;48.670;6.184;2023-04-26T05:20:58;99179.94;;;5.62;100.00
50123;BME280;36021;48.670;6.184;2023-04-26T05:23:26;99183.22;;;5.64;100.00
50123;BME280;36021;48.670;6.184;2023-04-26T05:25:52;99183.28;;;5.69;100.00
50123;BME280;36021;48.670;6.184;2023-04-26T05:28:37;99189.41;;;5.81;100.00
50123;BME280;36021;48.670;6.184;2023-04-26T05:31:18;99189.94;;;5.78;100.00
50123;BME280;36021;48.670;6.184;2023-04-26T05:34:04;99201.31;;;5.92;100.00
50123;BME280;36021;48.670;6.184;2023-04-26T05:36:36;99192.44;;;5.85;100.00
50123;BME280;36021;48.670;6.184;2023-04-26T05:39:02;99188.34;;;5.82;100.00
50123;BME280;36021;48.670;6.184;2023-04-26T05:41:33;99192.50;;;5.90;100.00
50123;BME280;36021;48.670;6.184;2023-04-26T05:43:59;99186.59;;;6.03;100.00
50123;BME280;36021;48.670;6.184;2023-04-26T05:46:24;99187.75;;;6.07;100.00
50123;BME280;36021;48.670;6.184;2023-04-26T05:48:50;99198.00;;;6.26;100.00
50123;BME280;36021;48.670;6.184;2023-04-26T05:51:16;99203.25;;;6.33;100.00
50123;BME280;36021;48.670;6.184;2023-04-26T05:53:42;99192.63;;;6.37;100.00
50123;BME280;36021;48.670;6.184;2023-04-26T05:56:07;99194.28;;;6.38;100.00
50123;BME280;36021;48.670;6.184;2023-04-26T05:58:36;99194.91;;;6.50;100.00
50123;BME280;36021;48.670;6.184;2023-04-26T06:01:02;99181.81;;;6.57;100.00
50123;BME280;36021;48.670;6.184;2023-04-26T06:03:27;99191.16;;;6.66;100.00
50123;BME280;36021;48.670;6.184;2023-04-26T06:05:53;99201.88;;;6.77;100.00
50123;BME280;36021;48.670;6.184;2023-04-26T06:08:22;99205.50;;;6.88;100.00
50123;BME280;36021;48.670;6.184;2023-04-26T06:10:48;99208.28;;;6.93;100.00
50123;BME280;36021;48.670;6.184;2023-04-26T06:13:14;99207.22;;;6.99;100.00
50123;BME280;36021;48.670;6.184;2023-04-26T06:15:41;99209.38;;;6.97;100.00
50123;BME280;36021;48.670;6.184;2023-04-26T06:18:07;99204.53;;;7.09;100.00
50123;BME280;36021;48.670;6.184;2023-04-26T06:20:33;99213.09;;;7.23;100.00
50123;BME280;36021;48.670;6.184;2023-04-26T06:23:00;99209.00;;;7.41;100.00
50123;BME280;36021;48.670;6.184;2023-04-26T06:25:26;99211.75;;;7.41;100.00
50123;BME280;36021;48.670;6.184;2023-04-26T06:27:51;99209.06;;;7.61;100.00
50123;BME280;36021;48.670;6.184;2023-04-26T06:30:18;99210.75;;;7.72;100.00
50123;BME280;36021;48.670;6.184;2023-04-26T06:32:46;99204.72;;;7.80;100.00
50123;BME280;36021;48.670;6.184;2023-04-26T06:35:11;99203.38;;;8.03;100.00
50123;BME280;36021;48.670;6.184;2023-04-26T06:37:37;99201.44;;;8.03;100.00
50123;BME280;36021;48.670;6.184;2023-04-26T06:40:06;99196.78;;;8.19;100.00
50123;BME280;36021;48.670;6.184;2023-04-26T06:42:33;99190.75;;;8.17;100.00
50123;BME280;36021;48.670;6.184;2023-04-26T06:45:15;99187.72;;;7.93;100.00
50123;BME280;36021;48.670;6.184;2023-04-26T06:47:42;99196.22;;;8.07;100.00
50123;BME280;36021;48.670;6.184;2023-04-26T06:50:09;99195.44;;;8.11;100.00
50123;BME280;36021;48.670;6.184;2023-04-26T06:52:34;99195.97;;;8.23;100.00
50123;BME280;36021;48.670;6.184;2023-04-26T06:55:00;99204.44;;;8.12;100.00
50123;BME280;36021;48.670;6.184;2023-04-26T06:57:26;99202.81;;;8.01;100.00
50123;BME280;36021;48.670;6.184;2023-04-26T06:59:55;99205.84;;;8.04;100.00
50123;BME280;36021;48.670;6.184;2023-04-26T07:02:21;99194.56;;;7.85;100.00
50123;BME280;36021;48.670;6.184;2023-04-26T07:04:48;99192.13;;;7.94;100.00
50123;BME280;36021;48.670;6.184;2023-04-26T07:07:14;99189.91;;;8.06;100.00
50123;BME280;36021;48.670;6.184;2023-04-26T07:09:42;99187.97;;;8.12;100.00
50123;BME280;36021;48.670;6.184;2023-04-26T07:12:11;99186.63;;;8.34;100.00
50123;BME280;36021;48.670;6.184;2023-04-26T07:14:37;99185.53;;;8.51;100.00
50123;BME280;36021;48.670;6.184;2023-04-26T07:17:08;99194.59;;;8.46;100.00
50123;BME280;36021;48.670;6.184;2023-04-26T07:19:33;99185.97;;;8.88;100.00
50123;BME280;36021;48.670;6.184;2023-04-26T07:21:59;99171.03;;;9.19;100.00
50123;BME280;36021;48.670;6.184;2023-04-26T07:24:25;99171.94;;;9.54;100.00
50123;BME280;36021;48.670;6.184;2023-04-26T07:26:51;99162.72;;;9.73;100.00
50123;BME280;36021;48.670;6.184;2023-04-26T07:29:16;99151.50;;;9.65;100.00
50123;BME280;36021;48.670;6.184;2023-04-26T07:31:44;99172.38;;;9.71;100.00
50123;BME280;36021;48.670;6.184;2023-04-26T07:34:10;99161.81;;;9.83;100.00
50123;BME280;36021;48.670;6.184;2023-04-26T07:36:36;99163.09;;;9.62;100.00
50123;BME280;36021;48.670;6.184;2023-04-26T07:39:02;99167.13;;;9.69;100.00
50123;BME280;36021;48.670;6.184;2023-04-26T07:41:30;99169.63;;;9.66;100.00
50123;BME280;36021;48.670;6.184;2023-04-26T07:43:57;99163.25;;;9.26;100.00
50123;BME280;36021;48.670;6.184;2023-04-26T07:46:23;99171.16;;;8.79;100.00
50123;BME280;36021;48.670;6.184;2023-04-26T07:48:48;99168.69;;;8.82;100.00
50123;BME280;36021;48.670;6.184;2023-04-26T07:51:14;99169.69;;;9.07;100.00
50123;BME280;36021;48.670;6.184;2023-04-26T07:53:40;99168.84;;;9.11;100.00
50123;BME280;36021;48.670;6.184;2023-04-26T07:56:07;99169.28;;;8.64;100.00
50123;BME280;36021;48.670;6.184;2023-04-26T07:58:34;99170.00;;;8.95;100.00
50123;BME280;36021;48.670;6.184;2023-04-26T08:01:01;99170.06;;;8.75;100.00
50123;BME280;36021;48.670;6.184;2023-04-26T08:03:27;99177.75;;;8.83;100.00
50123;BME280;36021;48.670;6.184;2023-04-26T08:05:53;99178.38;;;8.60;100.00
50123;BME280;36021;48.670;6.184;2023-04-26T08:08:21;99182.50;;;8.57;100.00
50123;BME280;36021;48.670;6.184;2023-04-26T08:10:47;99183.81;;;8.80;100.00
50123;BME280;36021;48.670;6.184;2023-04-26T08:13:14;99189.19;;;9.10;100.00
50123;BME280;36021;48.670;6.184;2023-04-26T08:15:40;99182.00;;;9.24;100.00
50123;BME280;36021;48.670;6.184;2023-04-26T08:18:05;99182.31;;;9.13;100.00
50123;BME280;36021;48.670;6.184;2023-04-26T08:20:31;99189.28;;;8.85;100.00
50123;BME280;36021;48.670;6.184;2023-04-26T08:22:59;99181.06;;;8.80;100.00
50123;BME280;36021;48.670;6.184;2023-04-26T08:25:27;99184.25;;;9.07;100.00
50123;BME280;36021;48.670;6.184;2023-04-26T08:27:53;99184.06;;;8.83;100.00
50123;BME280;36021;48.670;6.184;2023-04-26T08:30:19;99181.59;;;8.82;100.00
50123;BME280;36021;48.670;6.184;2023-04-26T08:32:45;99185.88;;;9.18;100.00
50123;BME280;36021;48.670;6.184;2023-04-26T08:35:11;99184.31;;;9.51;100.00
50123;BME280;36021;48.670;6.184;2023-04-26T08:37:37;99181.59;;;9.90;100.00
50123;BME280;36021;48.670;6.184;2023-04-26T08:40:06;99190.13;;;9.88;100.00
50123;BME280;36021;48.670;6.184;2023-04-26T08:42:40;99182.53;;;10.14;100.00
50123;BME280;36021;48.670;6.184;2023-04-26T08:45:06;99188.31;;;10.47;100.00
50123;BME280;36021;48.670;6.184;2023-04-26T08:47:39;99191.16;;;10.36;100.00
50123;BME280;36021;48.670;6.184;2023-04-26T08:50:07;99193.09;;;10.65;100.00
50123;BME280;36021;48.670;6.184;2023-04-26T08:52:34;99186.06;;;10.77;100.00
50123;BME280;36021;48.670;6.184;2023-04-26T08:55:01;99189.22;;;10.66;100.00
50123;BME280;36021;48.670;6.184;2023-04-26T08:57:30;99196.25;;;10.53;100.00
50123;BME280;36021;48.670;6.184;2023-04-26T09:00:01;99183.72;;;10.66;100.00
50123;BME280;36021;48.670;6.184;2023-04-26T09:02:30;99185.06;;;10.92;100.00
50123;BME280;36021;48.670;6.184;2023-04-26T09:04:56;99183.94;;;11.17;100.00
50123;BME280;36021;48.670;6.184;2023-04-26T09:07:31;99186.69;;;11.17;100.00
50123;BME280;36021;48.670;6.184;2023-04-26T09:09:58;99179.00;;;10.90;100.00
50123;BME280;36021;48.670;6.184;2023-04-26T09:12:24;99174.09;;;10.87;100.00
50123;BME280;36021;48.670;6.184;2023-04-26T09:14:49;99178.91;;;11.24;100.00
50123;BME280;36021;48.670;6.184;2023-04-26T09:17:25;99171.09;;;11.49;100.00
50123;BME280;36021;48.670;6.184;2023-04-26T09:19:51;99177.66;;;11.54;100.00
50123;BME280;36021;48.670;6.184;2023-04-26T09:25:15;99168.59;;;11.72;100.00
50123;BME280;36021;48.670;6.184;2023-04-26T09:27:42;99167.53;;;12.05;100.00
50123;BME280;36021;48.670;6.184;2023-04-26T09:37:53;99157.59;;;13.37;100.00
50123;BME280;36021;48.670;6.184;2023-04-26T09:40:22;99153.94;;;13.14;100.00
50123;BME280;36021;48.670;6.184;2023-04-26T09:42:56;99142.34;;;13.62;100.00
50123;BME280;36021;48.670;6.184;2023-04-26T09:45:23;99139.91;;;13.96;100.00
50123;BME280;36021;48.670;6.184;2023-04-26T09:47:48;99138.38;;;14.12;100.00
50123;BME280;36021;48.670;6.184;2023-04-26T09:50:24;99128.75;;;14.09;100.00
50123;BME280;36021;48.670;6.184;2023-04-26T09:52:49;99129.81;;;14.44;100.00
50123;BME280;36021;48.670;6.184;2023-04-26T09:55:24;99133.38;;;14.67;100.00
50123;BME280;36021;48.670;6.184;2023-04-26T09:57:51;99125.72;;;14.73;100.00
50123;BME280;36021;48.670;6.184;2023-04-26T10:00:17;99129.78;;;15.06;100.00
50123;BME280;36021;48.670;6.184;2023-04-26T10:02:43;99123.22;;;15.02;100.00
50123;BME280;36021;48.670;6.184;2023-04-26T10:05:09;99132.41;;;15.11;100.00
50123;BME280;36021;48.670;6.184;2023-04-26T10:07:35;99128.09;;;14.96;100.00
50123;BME280;36021;48.670;6.184;2023-04-26T10:10:01;99128.72;;;14.85;100.00
50123;BME280;36021;48.670;6.184;2023-04-26T10:12:28;99132.91;;;15.22;100.00
50123;BME280;36021;48.670;6.184;2023-04-26T10:14:54;99131.00;;;15.39;100.00
50123;BME280;36021;48.670;6.184;2023-04-26T10:17:20;99124.03;;;15.50;100.00
50123;BME280;36021;48.670;6.184;2023-04-26T10:19:46;99116.22;;;15.70;100.00
50123;BME280;36021;48.670;6.184;2023-04-26T10:22:18;99111.13;;;15.63;100.00
50123;BME280;36021;48.670;6.184;2023-04-26T10:24:44;99101.63;;;15.47;100.00
50123;BME280;36021;48.670;6.184;2023-04-26T10:27:09;99102.97;;;15.67;100.00
50123;BME280;36021;48.670;6.184;2023-04-26T10:32:19;99094.94;;;15.91;100.00
50123;BME280;36021;48.670;6.184;2023-04-26T10:35:07;99100.69;;;15.86;100.00
50123;BME280;36021;48.670;6.184;2023-04-26T10:37:30;99106.22;;;15.77;100.00
50123;BME280;36021;48.670;6.184;2023-04-26T10:40:21;99105.13;;;15.13;100.00
50123;BME280;36021;48.670;6.184;2023-04-26T10:42:41;99087.56;;;15.43;100.00
50123;BME280;36021;48.670;6.184;2023-04-26T10:45:26;99088.22;;;15.57;100.00
50123;BME280;36021;48.670;6.184;2023-04-26T10:51:04;99076.59;;;16.24;100.00
50123;BME280;36021;48.670;6.184;2023-04-26T10:53:22;99093.47;;;15.59;100.00
50123;BME280;36021;48.670;6.184;2023-04-26T10:55:48;99081.56;;;15.93;100.00
50123;BME280;36021;48.670;6.184;2023-04-26T10:58:33;99085.13;;;16.19;100.00
50123;BME280;36021;48.670;6.184;2023-04-26T11:01:08;99077.03;;;16.90;96.37
50123;BME280;36021;48.670;6.184;2023-04-26T11:03:36;99060.84;;;16.83;78.20
50123;BME280;36021;48.670;6.184;2023-04-26T11:06:06;99064.53;;;16.66;95.60
50123;BME280;36021;48.670;6.184;2023-04-26T11:08:32;99057.91;;;16.80;79.17
50123;BME280;36021;48.670;6.184;2023-04-26T11:13:23;99064.47;;;17.13;94.04
50123;BME280;36021;48.670;6.184;2023-04-26T11:15:53;99050.31;;;17.18;88.22
50123;BME280;36021;48.670;6.184;2023-04-26T11:18:23;99054.75;;;17.69;88.60
50123;BME280;36021;48.670;6.184;2023-04-26T11:20:49;99054.72;;;17.90;83.18
50123;BME280;36021;48.670;6.184;2023-04-26T11:23:17;99049.56;;;17.09;66.74
50123;BME280;36021;48.670;6.184;2023-04-26T11:25:43;99036.69;;;17.46;79.67
50123;BME280;36021;48.670;6.184;2023-04-26T11:28:09;99043.44;;;17.24;82.18
50123;BME280;36021;48.670;6.184;2023-04-26T11:30:34;99042.13;;;17.42;92.97
50123;BME280;36021;48.670;6.184;2023-04-26T11:33:00;99040.78;;;17.48;87.01
50123;BME280;36021;48.670;6.184;2023-04-26T11:35:26;99030.66;;;17.64;85.81
50123;BME280;36021;48.670;6.184;2023-04-26T11:37:56;99041.94;;;17.89;85.05
50123;BME280;36021;48.670;6.184;2023-04-26T11:40:22;99029.72;;;17.93;75.71
50123;BME280;36021;48.670;6.184;2023-04-26T11:42:47;99033.22;;;17.90;70.97
50123;BME280;36021;48.670;6.184;2023-04-26T11:45:19;99031.34;;;17.61;68.53
50123;BME280;36021;48.670;6.184;2023-04-26T11:47:44;99033.47;;;16.56;76.97
50123;BME280;36021;48.670;6.184;2023-04-26T11:50:10;99033.88;;;16.20;78.01
50123;BME280;36021;48.670;6.184;2023-04-26T11:52:36;99043.47;;;15.93;94.53
50123;BME280;36021;48.670;6.184;2023-04-26T11:55:05;99034.94;;;16.62;97.56
50123;BME280;36021;48.670;6.184;2023-04-26T11:57:32;99044.22;;;16.11;87.37
50123;BME280;36021;48.670;6.184;2023-04-26T12:00:10;99042.84;;;16.81;87.41
50123;BME280;36021;48.670;6.184;2023-04-26T12:02:38;99030.81;;;16.68;82.60
50123;BME280;36021;48.670;6.184;2023-04-26T12:05:04;99034.22;;;16.74;96.35
50123;BME280;36021;48.670;6.184;2023-04-26T12:07:36;99026.97;;;17.31;82.53
50123;BME280;36021;48.670;6.184;2023-04-26T12:10:15;99034.38;;;17.48;80.14
50123;BME280;36021;48.670;6.184;2023-04-26T12:12:47;99028.81;;;18.34;70.75
50123;BME280;36021;48.670;6.184;2023-04-26T12:15:14;99031.16;;;19.53;59.58
50123;BME280;36021;48.670;6.184;2023-04-26T12:17:39;99029.38;;;20.60;53.17
50123;BME280;36021;48.670;6.184;2023-04-26T12:20:09;99030.03;;;19.42;51.65
50123;BME280;36021;48.670;6.184;2023-04-26T12:22:35;99030.97;;;22.16;48.28
50123;BME280;36021;48.670;6.184;2023-04-26T12:25:05;99020.91;;;24.55;41.93
50123;BME280;36021;48.670;6.184;2023-04-26T12:27:31;99018.84;;;26.19;37.78
50123;BME280;36021;48.670;6.184;2023-04-26T12:29:56;99010.91;;;27.02;34.62
50123;BME280;36021;48.670;6.184;2023-04-26T12:32:22;99009.97;;;27.83;32.81
50123;BME280;36021;48.670;6.184;2023-04-26T12:34:48;99012.72;;;28.01;31.45
50123;BME280;36021;48.670;6.184;2023-04-26T12:37:13;99017.44;;;28.94;31.82
50123;BME280;36021;48.670;6.184;2023-04-26T12:39:39;99025.72;;;29.67;28.75
50123;BME280;36021;48.670;6.184;2023-04-26T12:42:05;99010.69;;;28.77;30.23
50123;BME280;36021;48.670;6.184;2023-04-26T12:44:30;99015.00;;;30.99;28.66
50123;BME280;36021;48.670;6.184;2023-04-26T12:46:56;99010.44;;;31.28;27.79
50123;BME280;36021;48.670;6.184;2023-04-26T12:49:21;99019.41;;;31.73;27.33
50123;BME280;36021;48.670;6.184;2023-04-26T12:51:47;99024.88;;;31.64;27.10
50123;BME280;36021;48.670;6.184;2023-04-26T12:54:13;99022.66;;;32.50;25.42
50123;BME280;36021;48.670;6.184;2023-04-26T12:56:39;99014.38;;;30.88;25.09
50123;BME280;36021;48.670;6.184;2023-04-26T12:59:08;99007.34;;;30.96;26.31
50123;BME280;36021;48.670;6.184;2023-04-26T13:01:34;99019.88;;;30.15;26.79
50123;BME280;36021;48.670;6.184;2023-04-26T13:03:59;99005.81;;;31.38;26.79
50123;BME280;36021;48.670;6.184;2023-04-26T13:06:28;99006.63;;;33.41;25.65
50123;BME280;36021;48.670;6.184;2023-04-26T13:08:54;99007.75;;;34.17;24.63
50123;BME280;36021;48.670;6.184;2023-04-26T13:11:20;99002.75;;;33.92;24.28
50123;BME280;36021;48.670;6.184;2023-04-26T13:13:49;99003.03;;;34.90;24.43
50123;BME280;36021;48.670;6.184;2023-04-26T13:16:14;99010.19;;;34.44;23.98